Kezdőlap
METAR-TAF:

METAR-TAF

Repülőterek :

Schaffen

Diest, Belgium

földrajzi szélesség: 51-00N, földrajzi hosszúság: 005-04E, magasság: 30 m

Jelenlegi meteorológiai megfigyelések

A jelentés 26 perccel ezelõtt készült, 14:55 UTC
Dél-délnyugati szél 11 kt
Hőmérséklet 8°C
Páratartalom 66%
Légköri nyomás 1003 hPa
Látótávolság 10 km, vagy több

METAR: EBDT 151455Z AUTO 21011KT 9999 NCD 08/02 Q1003 BLU

Idő: 16:21 (15:21 UTC)


TAF: hiányzik

Meteorológiai megfigyelések és előrejelzések több, mint 4000 repülőtéren (METAR és TAF jelentéseket).

A térképen piros és sárga pontok jelzik az elérhető meteorológiai állomásokat.

Mozgassa az egeret a pont fölött, hogy megjelenjen az állomás neve.

Azután kattintson az időjárási megfigyelések és előrejelzések megtekintéséhez.

A térkép megváltoztatása: kattintson a fekete keresztel jelölt zöld gombra ráközelítéshez, a vonallal jelölt zöld gombra távolításhoz, vagy a zöld nyilakra a szomszédos térképek eléréséhez.


METAR-TAF: